Hordafor III — LLVC — position and weather

sailwx.info

Track history (hours):
 
Tides and Currents Weather Stations Pressure Air Temp Water Temp Dewpoint Dewpoint Depression Visibility Wind Speed Wind Dir Waves Ship Positions

Hordafor III

Last reported at 2018-Jan-18 16:00 UTC. Time now 2018-Jan-18 16:04 UTC.
Position N 66°44' E 013°20'.

Length 50 m; draft 6 m.

Type: Ship. MMSI: 258044000.

Date/timePositionNaut miles runAvg speedWind from/ knotsBaromVisibWave heightAir tempDewpointWater temp
2018-Jan-18 16:00N 66°44' E 013°20'0 0.0
2018-Jan-18 15:30N 66°44' E 013°20'3 6.1
2018-Jan-18 15:00N 66°45' E 013°13'510.5
2018-Jan-18 14:30N 66°50' E 013°16'510.3
2018-Jan-18 14:00N 66°54' E 013°26'4 9.2
2018-Jan-18 13:30N 66°58' E 013°31'510.1
2018-Jan-18 13:00N 67°01' E 013°42'510.5
2018-Jan-18 12:30N 67°04' E 013°53'5 9.9
2018-Jan-18 12:00N 67°08' E 014°01'5 9.4
2018-Jan-18 11:30N 67°12' E 014°06'5 9.8
2018-Jan-18 11:00N 67°16' E 014°13'510.1
2018-Jan-18 10:30N 67°20' E 014°20'5 9.7
2018-Jan-18 10:00N 67°24' E 014°26'5 9.5
2018-Jan-18 09:30N 67°29' E 014°29'5 9.7
2018-Jan-18 08:59N 67°34' E 014°30'5 9.9
2018-Jan-18 08:30N 67°39' E 014°31'5 9.5
2018-Jan-18 08:00N 67°44' E 014°31'5 9.1
2018-Jan-18 07:29N 67°48' E 014°32'510.4
2018-Jan-18 06:59N 67°51' E 014°43'5 9.9
2018-Jan-18 06:29N 67°56' E 014°47'510.5
2018-Jan-18 06:00N 67°60' E 014°57'510.4
2018-Jan-18 05:30N 68°03' E 015°07'510.2
2018-Jan-18 05:00N 68°07' E 015°17'610.4
2018-Jan-18 04:27N 68°11' E 015°28'511.5
2018-Jan-18 04:00N 68°14' E 015°38'510.5
2018-Jan-18 03:30N 68°18' E 015°48'510.4
2018-Jan-18 03:00N 68°21' E 015°58'5 9.6
2018-Jan-18 02:30N 68°26' E 016°04'510.6
2018-Jan-18 02:00N 68°31' E 016°10'510.6
2018-Jan-18 01:30N 68°34' E 016°21'4 8.1
2018-Jan-18 01:00N 68°35' E 016°32'9 9.3
2018-Jan-18 00:00N 68°43' E 016°43'110.5
2018-Jan-17 23:57N 68°43' E 016°44'  
2018-Jan-12 14:55N 69°30' E 017°29'0 0.0
2018-Jan-12 14:30N 69°30' E 017°29'0 0.0
2018-Jan-12 13:58N 69°30' E 017°29'0 0.0
2018-Jan-12 13:28N 69°30' E 017°29'0 0.0
2018-Jan-12 12:59N 69°30' E 017°29'0 0.0
2018-Jan-12 12:03N 69°30' E 017°29'0 0.1
2018-Jan-12 11:58N 69°30' E 017°29'0 0.0
2018-Jan-12 11:30N 69°30' E 017°29'0 0.0
2018-Jan-12 11:00N 69°30' E 017°29'0 0.0
2018-Jan-12 10:30N 69°30' E 017°29'0 0.0
2018-Jan-12 10:00N 69°30' E 017°29'0 0.2
2018-Jan-12 09:30N 69°30' E 017°30'5 9.1
2018-Jan-12 09:00N 69°33' E 017°20'510.3
2018-Jan-12 08:30N 69°29' E 017°10'5 9.8
2018-Jan-12 08:00N 69°25' E 017°17'0 0.0
2018-Jan-12 07:30N 69°25' E 017°17'0 0.0
2018-Jan-12 07:00N 69°25' E 017°17'1 1.6
2018-Jan-12 06:30N 69°26' E 017°18'1 1.9
2018-Jan-12 06:00N 69°25' E 017°20'0 0.0
2018-Jan-12 05:30N 69°25' E 017°20'0 0.6
2018-Jan-12 05:00N 69°25' E 017°21'0 0.7
2018-Jan-12 04:29N 69°25' E 017°22'0 0.5
2018-Jan-12 04:00N 69°25' E 017°23'0 0.6
2018-Jan-12 03:30N 69°26' E 017°22'0 0.7
2018-Jan-12 03:00N 69°26' E 017°21'0 0.7
2018-Jan-12 02:30N 69°26' E 017°20'1 1.4
2018-Jan-12 02:00N 69°26' E 017°18'1 2.4
2018-Jan-12 01:29N 69°26' E 017°15'0 0.4
2018-Jan-12 01:00N 69°26' E 017°16'0 0.5
2018-Jan-12 00:31N 69°26' E 017°16'0 0.6
2018-Jan-12 00:00N 69°26' E 017°17'0 0.7
2018-Jan-11 23:30N 69°26' E 017°18'0 0.6
2018-Jan-11 22:59N 69°26' E 017°19'0 0.8
2018-Jan-11 22:30N 69°26' E 017°20'0 1.0
2018-Jan-11 22:00N 69°26' E 017°21'0 0.4
2018-Jan-11 21:30N 69°26' E 017°21'3 5.6
2018-Jan-11 20:58N 69°27' E 017°14'4 8.9
2018-Jan-11 20:29N 69°31' E 017°11'510.6
2018-Jan-11 20:00N 69°31' E 016°57'611.3
2018-Jan-11 19:30N 69°26' E 016°47'611.1
2018-Jan-11 19:00N 69°22' E 016°38'611.2
2018-Jan-11 18:30N 69°17' E 016°30'511.1
2018-Jan-11 18:00N 69°12' E 016°22'510.9
2018-Jan-11 17:30N 69°08' E 016°14'611.3
2018-Jan-11 17:00N 69°03' E 016°04'611.3
2018-Jan-11 16:30N 68°60' E 015°51'5 9.6
2018-Jan-11 15:59N 68°58' E 015°38'510.7
2018-Jan-11 15:31N 68°53' E 015°33'611.0
2018-Jan-11 15:00N 68°48' E 015°26'611.6
2018-Jan-11 14:30N 68°42' E 015°26'510.8
2018-Jan-11 14:00N 68°38' E 015°19'610.6
2018-Jan-11 13:28N 68°33' E 015°10'510.1
2018-Jan-11 13:00N 68°28' E 015°12'611.2
2018-Jan-11 12:29N 68°23' E 015°05'510.8
2018-Jan-11 12:00N 68°18' E 014°58'511.0
2018-Jan-11 11:30N 68°13' E 014°56'2 4.2
2018-Jan-11 10:59N 68°14' E 014°51'0 0.0
2018-Jan-11 10:30N 68°14' E 014°51'0 0.0
2018-Jan-11 10:00N 68°14' E 014°51'0 0.0
2018-Jan-11 09:29N 68°14' E 014°51'0 0.0
2018-Jan-11 09:00N 68°14' E 014°51'0 0.0
2018-Jan-11 08:30N 68°14' E 014°51'0 0.0
2018-Jan-11 08:00N 68°14' E 014°51'0 0.0
2018-Jan-11 07:30N 68°14' E 014°51'0 0.0
2018-Jan-11 07:00N 68°14' E 014°51'0 0.0
2018-Jan-11 06:30N 68°14' E 014°51'2 3.3
2018-Jan-11 06:00N 68°14' E 014°55'510.6
2018-Jan-11 05:30N 68°19' E 014°59'2 3.6
2018-Jan-11 04:59N 68°20' E 015°02'0 0.0
2018-Jan-11 04:30N 68°20' E 015°02'0 0.0
2018-Jan-11 04:00N 68°20' E 015°02'0 0.0
2018-Jan-11 03:29N 68°20' E 015°02'0 1.0
2018-Jan-11 03:00N 68°20' E 015°01'4 8.4
2018-Jan-11 02:31N 68°16' E 014°58'4 7.8
2018-Jan-11 02:00N 68°13' E 014°50'0 1.0
2018-Jan-11 01:30N 68°14' E 014°51'2 4.2
2018-Jan-11 01:00N 68°15' E 014°56'510.5
2018-Jan-11 00:30N 68°20' E 015°00'1 2.3
2018-Jan-11 00:00N 68°20' E 015°02'0 0.0
2018-Jan-10 23:30N 68°20' E 015°02'0 0.0
2018-Jan-10 23:00N 68°20' E 015°02'0 0.0
2018-Jan-10 22:30N 68°20' E 015°02'0 0.0
2018-Jan-10 22:00N 68°20' E 015°02'1 1.3
2018-Jan-10 21:31N 68°20' E 015°01'510.5
2018-Jan-10 21:00N 68°15' E 014°56'510.8
2018-Jan-10 20:30N 68°10' E 014°51'510.7
2018-Jan-10 20:00N 68°05' E 014°45'510.4
2018-Jan-10 19:30N 68°01' E 014°38'510.4
2018-Jan-10 19:00N 67°56' E 014°33'610.8
2018-Jan-10 18:29N 67°51' E 014°27'510.9
2018-Jan-10 18:00N 67°46' E 014°21'510.9
2018-Jan-10 17:30N 67°41' E 014°17'510.7
2018-Jan-10 17:00N 67°35' E 014°20'510.6
2018-Jan-10 16:30N 67°30' E 014°23'510.4
2018-Jan-10 16:00N 67°25' E 014°27'510.8
2018-Jan-10 15:30N 67°20' E 014°23'3 6.6
2018-Jan-10 15:00N 67°17' E 014°23'0 0.0
2018-Jan-10 14:30N 67°17' E 014°23'0 0.0
2018-Jan-10 14:00N 67°17' E 014°23'0 0.0
2018-Jan-10 13:30N 67°17' E 014°23'0 0.0
2018-Jan-10 13:00N 67°17' E 014°23'0 0.0
2018-Jan-10 12:30N 67°17' E 014°23'0 0.0
2018-Jan-10 12:01N 67°17' E 014°23'0 0.0
2018-Jan-10 11:31N 67°17' E 014°23'0 0.0
2018-Jan-10 11:00N 67°17' E 014°23'0 0.0
2018-Jan-10 10:30N 67°17' E 014°23'0 0.0
2018-Jan-10 10:00N 67°17' E 014°23'0 0.0
2018-Jan-10 09:30N 67°17' E 014°23'0 0.0
2018-Jan-10 09:01N 67°17' E 014°23'0 0.0
2018-Jan-10 08:31N 67°17' E 014°23'0 0.0
2018-Jan-10 08:01N 67°17' E 014°23'0 0.0
2018-Jan-10 07:30N 67°17' E 014°23'0 0.0
2018-Jan-10 07:01N 67°17' E 014°23'0 0.0
2018-Jan-10 06:30N 67°17' E 014°23'0 0.0
2018-Jan-10 06:00N 67°17' E 014°23'0 0.0
2018-Jan-10 05:31N 67°17' E 014°23'0 0.0
2018-Jan-10 05:01N 67°17' E 014°23'0 0.0
2018-Jan-10 04:31N 67°17' E 014°23'0 0.0
2018-Jan-10 04:00N 67°17' E 014°23'0 0.0
2018-Jan-10 03:30N 67°17' E 014°23'0 0.0
2018-Jan-10 03:00N 67°17' E 014°23'0 0.0
2018-Jan-10 02:31N 67°17' E 014°23'0 0.0
2018-Jan-10 02:00N 67°17' E 014°23'0 0.0
2018-Jan-10 01:30N 67°17' E 014°23'0 0.0
2018-Jan-10 01:01N 67°17' E 014°23'0 0.0
2018-Jan-10 00:30N 67°17' E 014°23'0 0.0
2018-Jan-10 00:01N 67°17' E 014°23'0 0.0
2018-Jan-09 23:31N 67°17' E 014°23'0 0.0
2018-Jan-09 23:01N 67°17' E 014°23'0 0.0
2018-Jan-09 22:30N 67°17' E 014°23'0 0.0
2018-Jan-09 22:01N 67°17' E 014°23'0 0.0
2018-Jan-09 21:31N 67°17' E 014°23'0 0.0
2018-Jan-09 21:01N 67°17' E 014°23'0 0.0
2018-Jan-09 20:31N 67°17' E 014°23'0 0.0
2018-Jan-09 20:00N 67°17' E 014°23'0 0.0
2018-Jan-09 19:30N 67°17' E 014°23'0 0.0
2018-Jan-09 19:01N 67°17' E 014°23'0 0.0
2018-Jan-09 18:31N 67°17' E 014°23'0 0.0
2018-Jan-09 18:01N 67°17' E 014°23'0 0.0
2018-Jan-09 17:30N 67°17' E 014°23'0 0.0
2018-Jan-09 17:01N 67°17' E 014°23'0 0.0
2018-Jan-09 16:30N 67°17' E 014°23'0 0.0
2018-Jan-09 16:01N 67°17' E 014°23'0 0.0
2018-Jan-09 15:30N 67°17' E 014°23'0 0.0
2018-Jan-09 15:00N 67°17' E 014°23'3 6.4
2018-Jan-09 14:30N 67°20' E 014°23'510.7
2018-Jan-09 14:00N 67°25' E 014°27'510.9
2018-Jan-09 13:30N 67°29' E 014°16'510.6
2018-Jan-09 13:01N 67°31' E 014°04'510.4
2018-Jan-09 12:30N 67°33' E 013°50'510.2
2018-Jan-09 12:00N 67°34' E 013°38'510.0
2018-Jan-09 11:30N 67°35' E 013°25'510.4
2018-Jan-09 11:00N 67°36' E 013°11'510.5
2018-Jan-09 10:30N 67°37' E 012°58'510.8
2018-Jan-09 10:00N 67°39' E 012°44'1 1.3
2018-Jan-09 09:30N 67°39' E 012°43'0 0.0
2018-Jan-09 09:00N 67°39' E 012°43'0 0.0
2018-Jan-09 08:30N 67°39' E 012°43'0 0.0
2018-Jan-09 08:00N 67°39' E 012°43'0 0.1
2018-Jan-09 07:30N 67°39' E 012°43'4 8.0
2018-Jan-09 07:00N 67°36' E 012°48'5 9.0
2018-Jan-09 06:30N 67°31' E 012°52'4 8.8
2018-Jan-09 06:01N 67°27' E 012°56'8 8.8
2018-Jan-09 05:03N 67°19' E 013°04'0 9.0
2018-Jan-09 05:00N 67°19' E 013°04'5 9.3
2018-Jan-09 04:30N 67°15' E 013°08'5 9.2
2018-Jan-09 04:00N 67°10' E 013°13'510.3
2018-Jan-09 03:30N 67°06' E 013°17'510.5
2018-Jan-09 03:00N 67°01' E 013°23'510.5
2018-Jan-09 02:30N 66°56' E 013°29'510.6
2018-Jan-09 02:00N 66°52' E 013°35'1 1.3
2018-Jan-09 01:30N 66°52' E 013°36'0 0.0
2018-Jan-09 01:01N 66°52' E 013°36'2 4.0
2018-Jan-09 00:30N 66°50' E 013°35'3 5.6
2018-Jan-09 00:00N 66°49' E 013°28'0 0.0
2018-Jan-08 23:29N 66°49' E 013°28'3 5.9
2018-Jan-08 23:00N 66°48' E 013°22'4 8.1
2018-Jan-08 22:30N 66°44' E 013°16'2 3.4
2018-Jan-08 22:00N 66°44' E 013°20'3 7.1
2018-Jan-08 21:30N 66°43' E 013°11'510.9
2018-Jan-08 21:00N 66°38' E 013°06'510.3
2018-Jan-08 20:30N 66°33' E 013°03'5 9.4
2018-Jan-08 20:00N 66°35' E 012°52'1 1.2
2018-Jan-08 19:30N 66°35' E 012°51'1 2.5
2018-Jan-08 19:00N 66°34' E 012°53'611.5
2018-Jan-08 18:30N 66°29' E 012°59'510.9
2018-Jan-08 18:00N 66°27' E 012°47'611.4
2018-Jan-08 17:30N 66°25' E 012°34'510.7
2018-Jan-08 17:01N 66°22' E 012°23'0 0.1
2018-Jan-08 16:31N 66°22' E 012°23'0 0.0
2018-Jan-08 16:00N 66°22' E 012°23'  
Track history (hours):
 
Tides and Currents Weather Stations Pressure Air Temp Water Temp Dewpoint Dewpoint Depression Visibility Wind Speed Wind Dir Waves Ship Positions

Hordafor III

Last reported at 2018-Jan-18 16:00 UTC. Time now 2018-Jan-18 16:04 UTC.
Position N 66°44' E 013°20'.

Length 50 m; draft 6 m.

Type: Ship. MMSI: 258044000.

Date/timePositionNaut miles runAvg speedWind from/ knotsBaromVisibWave heightAir tempDewpointWater temp
2018-Jan-18 16:00N 66°44' E 013°20'0 0.0
2018-Jan-18 15:30N 66°44' E 013°20'3 6.1
2018-Jan-18 15:00N 66°45' E 013°13'510.5
2018-Jan-18 14:30N 66°50' E 013°16'510.3
2018-Jan-18 14:00N 66°54' E 013°26'4 9.2
2018-Jan-18 13:30N 66°58' E 013°31'510.1
2018-Jan-18 13:00N 67°01' E 013°42'510.5
2018-Jan-18 12:30N 67°04' E 013°53'5 9.9
2018-Jan-18 12:00N 67°08' E 014°01'5 9.4
2018-Jan-18 11:30N 67°12' E 014°06'5 9.8
2018-Jan-18 11:00N 67°16' E 014°13'510.1
2018-Jan-18 10:30N 67°20' E 014°20'5 9.7
2018-Jan-18 10:00N 67°24' E 014°26'5 9.5
2018-Jan-18 09:30N 67°29' E 014°29'5 9.7
2018-Jan-18 08:59N 67°34' E 014°30'5 9.9
2018-Jan-18 08:30N 67°39' E 014°31'5 9.5
2018-Jan-18 08:00N 67°44' E 014°31'5 9.1
2018-Jan-18 07:29N 67°48' E 014°32'510.4
2018-Jan-18 06:59N 67°51' E 014°43'5 9.9
2018-Jan-18 06:29N 67°56' E 014°47'510.5
2018-Jan-18 06:00N 67°60' E 014°57'510.4
2018-Jan-18 05:30N 68°03' E 015°07'510.2
2018-Jan-18 05:00N 68°07' E 015°17'610.4
2018-Jan-18 04:27N 68°11' E 015°28'511.5
2018-Jan-18 04:00N 68°14' E 015°38'510.5
2018-Jan-18 03:30N 68°18' E 015°48'510.4
2018-Jan-18 03:00N 68°21' E 015°58'5 9.6
2018-Jan-18 02:30N 68°26' E 016°04'510.6
2018-Jan-18 02:00N 68°31' E 016°10'510.6
2018-Jan-18 01:30N 68°34' E 016°21'4 8.1
2018-Jan-18 01:00N 68°35' E 016°32'9 9.3
2018-Jan-18 00:00N 68°43' E 016°43'110.5
2018-Jan-17 23:57N 68°43' E 016°44'  
2018-Jan-12 14:55N 69°30' E 017°29'0 0.0
2018-Jan-12 14:30N 69°30' E 017°29'0 0.0
2018-Jan-12 13:58N 69°30' E 017°29'0 0.0
2018-Jan-12 13:28N 69°30' E 017°29'0 0.0
2018-Jan-12 12:59N 69°30' E 017°29'0 0.0
2018-Jan-12 12:03N 69°30' E 017°29'0 0.1
2018-Jan-12 11:58N 69°30' E 017°29'0 0.0
2018-Jan-12 11:30N 69°30' E 017°29'0 0.0
2018-Jan-12 11:00N 69°30' E 017°29'0 0.0
2018-Jan-12 10:30N 69°30' E 017°29'0 0.0
2018-Jan-12 10:00N 69°30' E 017°29'0 0.2
2018-Jan-12 09:30N 69°30' E 017°30'5 9.1
2018-Jan-12 09:00N 69°33' E 017°20'510.3
2018-Jan-12 08:30N 69°29' E 017°10'5 9.8
2018-Jan-12 08:00N 69°25' E 017°17'0 0.0
2018-Jan-12 07:30N 69°25' E 017°17'0 0.0
2018-Jan-12 07:00N 69°25' E 017°17'1 1.6
2018-Jan-12 06:30N 69°26' E 017°18'1 1.9
2018-Jan-12 06:00N 69°25' E 017°20'0 0.0
2018-Jan-12 05:30N 69°25' E 017°20'0 0.6
2018-Jan-12 05:00N 69°25' E 017°21'0 0.7
2018-Jan-12 04:29N 69°25' E 017°22'0 0.5
2018-Jan-12 04:00N 69°25' E 017°23'0 0.6
2018-Jan-12 03:30N 69°26' E 017°22'0 0.7
2018-Jan-12 03:00N 69°26' E 017°21'0 0.7
2018-Jan-12 02:30N 69°26' E 017°20'1 1.4
2018-Jan-12 02:00N 69°26' E 017°18'1 2.4
2018-Jan-12 01:29N 69°26' E 017°15'0 0.4
2018-Jan-12 01:00N 69°26' E 017°16'0 0.5
2018-Jan-12 00:31N 69°26' E 017°16'0 0.6
2018-Jan-12 00:00N 69°26' E 017°17'0 0.7
2018-Jan-11 23:30N 69°26' E 017°18'0 0.6
2018-Jan-11 22:59N 69°26' E 017°19'0 0.8
2018-Jan-11 22:30N 69°26' E 017°20'0 1.0
2018-Jan-11 22:00N 69°26' E 017°21'0 0.4
2018-Jan-11 21:30N 69°26' E 017°21'3 5.6
2018-Jan-11 20:58N 69°27' E 017°14'4 8.9
2018-Jan-11 20:29N 69°31' E 017°11'510.6
2018-Jan-11 20:00N 69°31' E 016°57'611.3
2018-Jan-11 19:30N 69°26' E 016°47'611.1
2018-Jan-11 19:00N 69°22' E 016°38'611.2
2018-Jan-11 18:30N 69°17' E 016°30'511.1
2018-Jan-11 18:00N 69°12' E 016°22'510.9
2018-Jan-11 17:30N 69°08' E 016°14'611.3
2018-Jan-11 17:00N 69°03' E 016°04'611.3
2018-Jan-11 16:30N 68°60' E 015°51'5 9.6
2018-Jan-11 15:59N 68°58' E 015°38'510.7
2018-Jan-11 15:31N 68°53' E 015°33'611.0
2018-Jan-11 15:00N 68°48' E 015°26'611.6
2018-Jan-11 14:30N 68°42' E 015°26'510.8
2018-Jan-11 14:00N 68°38' E 015°19'610.6
2018-Jan-11 13:28N 68°33' E 015°10'510.1
2018-Jan-11 13:00N 68°28' E 015°12'611.2
2018-Jan-11 12:29N 68°23' E 015°05'510.8
2018-Jan-11 12:00N 68°18' E 014°58'511.0
2018-Jan-11 11:30N 68°13' E 014°56'2 4.2
2018-Jan-11 10:59N 68°14' E 014°51'0 0.0
2018-Jan-11 10:30N 68°14' E 014°51'0 0.0
2018-Jan-11 10:00N 68°14' E 014°51'0 0.0
2018-Jan-11 09:29N 68°14' E 014°51'0 0.0
2018-Jan-11 09:00N 68°14' E 014°51'0 0.0
2018-Jan-11 08:30N 68°14' E 014°51'0 0.0
2018-Jan-11 08:00N 68°14' E 014°51'0 0.0
2018-Jan-11 07:30N 68°14' E 014°51'0 0.0
2018-Jan-11 07:00N 68°14' E 014°51'0 0.0
2018-Jan-11 06:30N 68°14' E 014°51'2 3.3
2018-Jan-11 06:00N 68°14' E 014°55'510.6
2018-Jan-11 05:30N 68°19' E 014°59'2 3.6
2018-Jan-11 04:59N 68°20' E 015°02'0 0.0
2018-Jan-11 04:30N 68°20' E 015°02'0 0.0
2018-Jan-11 04:00N 68°20' E 015°02'0 0.0
2018-Jan-11 03:29N 68°20' E 015°02'0 1.0
2018-Jan-11 03:00N 68°20' E 015°01'4 8.4
2018-Jan-11 02:31N 68°16' E 014°58'4 7.8
2018-Jan-11 02:00N 68°13' E 014°50'0 1.0
2018-Jan-11 01:30N 68°14' E 014°51'2 4.2
2018-Jan-11 01:00N 68°15' E 014°56'510.5
2018-Jan-11 00:30N 68°20' E 015°00'1 2.3
2018-Jan-11 00:00N 68°20' E 015°02'0 0.0
2018-Jan-10 23:30N 68°20' E 015°02'0 0.0
2018-Jan-10 23:00N 68°20' E 015°02'0 0.0
2018-Jan-10 22:30N 68°20' E 015°02'0 0.0
2018-Jan-10 22:00N 68°20' E 015°02'1 1.3
2018-Jan-10 21:31N 68°20' E 015°01'510.5
2018-Jan-10 21:00N 68°15' E 014°56'510.8
2018-Jan-10 20:30N 68°10' E 014°51'510.7
2018-Jan-10 20:00N 68°05' E 014°45'510.4
2018-Jan-10 19:30N 68°01' E 014°38'510.4
2018-Jan-10 19:00N 67°56' E 014°33'610.8
2018-Jan-10 18:29N 67°51' E 014°27'510.9
2018-Jan-10 18:00N 67°46' E 014°21'510.9
2018-Jan-10 17:30N 67°41' E 014°17'510.7
2018-Jan-10 17:00N 67°35' E 014°20'510.6
2018-Jan-10 16:30N 67°30' E 014°23'510.4
2018-Jan-10 16:00N 67°25' E 014°27'510.8
2018-Jan-10 15:30N 67°20' E 014°23'3 6.6
2018-Jan-10 15:00N 67°17' E 014°23'0 0.0
2018-Jan-10 14:30N 67°17' E 014°23'0 0.0
2018-Jan-10 14:00N 67°17' E 014°23'0 0.0
2018-Jan-10 13:30N 67°17' E 014°23'0 0.0
2018-Jan-10 13:00N 67°17' E 014°23'0 0.0
2018-Jan-10 12:30N 67°17' E 014°23'0 0.0
2018-Jan-10 12:01N 67°17' E 014°23'0 0.0
2018-Jan-10 11:31N 67°17' E 014°23'0 0.0
2018-Jan-10 11:00N 67°17' E 014°23'0 0.0
2018-Jan-10 10:30N 67°17' E 014°23'0 0.0
2018-Jan-10 10:00N 67°17' E 014°23'0 0.0
2018-Jan-10 09:30N 67°17' E 014°23'0 0.0
2018-Jan-10 09:01N 67°17' E 014°23'0 0.0
2018-Jan-10 08:31N 67°17' E 014°23'0 0.0
2018-Jan-10 08:01N 67°17' E 014°23'0 0.0
2018-Jan-10 07:30N 67°17' E 014°23'0 0.0
2018-Jan-10 07:01N 67°17' E 014°23'0 0.0
2018-Jan-10 06:30N 67°17' E 014°23'0 0.0
2018-Jan-10 06:00N 67°17' E 014°23'0 0.0
2018-Jan-10 05:31N 67°17' E 014°23'0 0.0
2018-Jan-10 05:01N 67°17' E 014°23'0 0.0
2018-Jan-10 04:31N 67°17' E 014°23'0 0.0
2018-Jan-10 04:00N 67°17' E 014°23'0 0.0
2018-Jan-10 03:30N 67°17' E 014°23'0 0.0
2018-Jan-10 03:00N 67°17' E 014°23'0 0.0
2018-Jan-10 02:31N 67°17' E 014°23'0 0.0
2018-Jan-10 02:00N 67°17' E 014°23'0 0.0
2018-Jan-10 01:30N 67°17' E 014°23'0 0.0
2018-Jan-10 01:01N 67°17' E 014°23'0 0.0
2018-Jan-10 00:30N 67°17' E 014°23'0 0.0
2018-Jan-10 00:01N 67°17' E 014°23'0 0.0
2018-Jan-09 23:31N 67°17' E 014°23'0 0.0
2018-Jan-09 23:01N 67°17' E 014°23'0 0.0
2018-Jan-09 22:30N 67°17' E 014°23'0 0.0
2018-Jan-09 22:01N 67°17' E 014°23'0 0.0
2018-Jan-09 21:31N 67°17' E 014°23'0 0.0
2018-Jan-09 21:01N 67°17' E 014°23'0 0.0
2018-Jan-09 20:31N 67°17' E 014°23'0 0.0
2018-Jan-09 20:00N 67°17' E 014°23'0 0.0
2018-Jan-09 19:30N 67°17' E 014°23'0 0.0
2018-Jan-09 19:01N 67°17' E 014°23'0 0.0
2018-Jan-09 18:31N 67°17' E 014°23'0 0.0
2018-Jan-09 18:01N 67°17' E 014°23'0 0.0
2018-Jan-09 17:30N 67°17' E 014°23'0 0.0
2018-Jan-09 17:01N 67°17' E 014°23'0 0.0
2018-Jan-09 16:30N 67°17' E 014°23'0 0.0
2018-Jan-09 16:01N 67°17' E 014°23'0 0.0
2018-Jan-09 15:30N 67°17' E 014°23'0 0.0
2018-Jan-09 15:00N 67°17' E 014°23'3 6.4
2018-Jan-09 14:30N 67°20' E 014°23'510.7
2018-Jan-09 14:00N 67°25' E 014°27'510.9
2018-Jan-09 13:30N 67°29' E 014°16'510.6
2018-Jan-09 13:01N 67°31' E 014°04'510.4
2018-Jan-09 12:30N 67°33' E 013°50'510.2
2018-Jan-09 12:00N 67°34' E 013°38'510.0
2018-Jan-09 11:30N 67°35' E 013°25'510.4
2018-Jan-09 11:00N 67°36' E 013°11'510.5
2018-Jan-09 10:30N 67°37' E 012°58'510.8
2018-Jan-09 10:00N 67°39' E 012°44'1 1.3
2018-Jan-09 09:30N 67°39' E 012°43'0 0.0
2018-Jan-09 09:00N 67°39' E 012°43'0 0.0
2018-Jan-09 08:30N 67°39' E 012°43'0 0.0
2018-Jan-09 08:00N 67°39' E 012°43'0 0.1
2018-Jan-09 07:30N 67°39' E 012°43'4 8.0
2018-Jan-09 07:00N 67°36' E 012°48'5 9.0
2018-Jan-09 06:30N 67°31' E 012°52'4 8.8
2018-Jan-09 06:01N 67°27' E 012°56'8 8.8
2018-Jan-09 05:03N 67°19' E 013°04'0 9.0
2018-Jan-09 05:00N 67°19' E 013°04'5 9.3
2018-Jan-09 04:30N 67°15' E 013°08'5 9.2
2018-Jan-09 04:00N 67°10' E 013°13'510.3
2018-Jan-09 03:30N 67°06' E 013°17'510.5
2018-Jan-09 03:00N 67°01' E 013°23'510.5
2018-Jan-09 02:30N 66°56' E 013°29'510.6
2018-Jan-09 02:00N 66°52' E 013°35'1 1.3
2018-Jan-09 01:30N 66°52' E 013°36'0 0.0
2018-Jan-09 01:01N 66°52' E 013°36'2 4.0
2018-Jan-09 00:30N 66°50' E 013°35'3 5.6
2018-Jan-09 00:00N 66°49' E 013°28'0 0.0
2018-Jan-08 23:29N 66°49' E 013°28'3 5.9
2018-Jan-08 23:00N 66°48' E 013°22'4 8.1
2018-Jan-08 22:30N 66°44' E 013°16'2 3.4
2018-Jan-08 22:00N 66°44' E 013°20'3 7.1
2018-Jan-08 21:30N 66°43' E 013°11'510.9
2018-Jan-08 21:00N 66°38' E 013°06'510.3
2018-Jan-08 20:30N 66°33' E 013°03'5 9.4
2018-Jan-08 20:00N 66°35' E 012°52'1 1.2
2018-Jan-08 19:30N 66°35' E 012°51'1 2.5
2018-Jan-08 19:00N 66°34' E 012°53'611.5
2018-Jan-08 18:30N 66°29' E 012°59'510.9
2018-Jan-08 18:00N 66°27' E 012°47'611.4
2018-Jan-08 17:30N 66°25' E 012°34'510.7
2018-Jan-08 17:01N 66°22' E 012°23'0 0.1
2018-Jan-08 16:31N 66°22' E 012°23'0 0.0
2018-Jan-08 16:00N 66°22' E 012°23'  

Dump ship's entire track history